createdAt,value
2023-04-15T00:00:34.509Z,49.47
2023-04-15T00:01:37.287Z,44.33
2023-04-15T00:02:39.831Z,46.38
2023-04-15T00:03:42.300Z,43.85
2023-04-15T00:04:46.265Z,46.83
2023-04-15T00:05:48.775Z,49.80
2023-04-15T00:06:55.112Z,48.40
2023-04-15T00:07:58.970Z,49.72
2023-04-15T00:09:01.405Z,49.03
2023-04-15T00:10:04.494Z,50.70
2023-04-15T00:11:06.902Z,47.80
2023-04-15T00:12:09.223Z,50.88
2023-04-15T00:13:13.792Z,45.47
2023-04-15T00:14:16.504Z,46.17
2023-04-15T00:15:19.272Z,51.22
2023-04-15T00:16:22.032Z,51.75
2023-04-15T00:17:24.437Z,49.50
2023-04-15T00:18:26.853Z,46.95
2023-04-15T00:19:29.725Z,49.03
2023-04-15T00:20:32.333Z,47.70
2023-04-15T00:21:34.600Z,47.72
2023-04-15T00:22:36.813Z,53.20
2023-04-15T00:23:39.042Z,47.30
2023-04-15T00:24:41.964Z,51.03
2023-04-15T00:25:44.903Z,49.33
2023-04-15T00:26:47.182Z,52.50
2023-04-15T00:27:49.706Z,52.53
2023-04-15T00:28:52.076Z,53.05
2023-04-15T00:29:54.673Z,55.55
2023-04-15T00:30:57.832Z,48.17
2023-04-15T00:32:00.394Z,48.45
2023-04-15T00:33:03.685Z,49.97
2023-04-15T00:34:05.898Z,50.90
2023-04-15T00:35:09.032Z,53.42
2023-04-15T00:36:11.320Z,49.63
2023-04-15T00:37:13.722Z,49.47
2023-04-15T00:38:16.037Z,55.03
2023-04-15T00:39:18.310Z,55.05
2023-04-15T00:40:21.786Z,52.80
2023-04-15T00:41:25.594Z,58.28
2023-04-15T00:42:28.111Z,55.75
2023-04-15T00:43:30.391Z,57.33
2023-04-15T00:44:33.721Z,52.42
2023-04-15T00:45:37.393Z,52.40
2023-04-15T00:46:40.441Z,52.20
2023-04-15T00:47:44.266Z,53.90
2023-04-15T00:48:47.525Z,57.00
2023-04-15T00:49:49.839Z,54.60
2023-04-15T00:50:53.603Z,54.05
2023-04-15T00:51:56.312Z,53.33
2023-04-15T00:52:59.704Z,58.08
2023-04-15T00:54:03.553Z,57.30
2023-04-15T00:55:06.955Z,55.80
2023-04-15T00:56:14.901Z,53.00
2023-04-15T00:57:27.688Z,55.45
2023-04-15T00:58:36.473Z,56.05
2023-04-15T00:59:54.784Z,55.75
2023-04-15T01:01:01.977Z,53.28
2023-04-15T01:02:05.845Z,57.58
2023-04-15T01:03:08.894Z,57.25
2023-04-15T01:04:12.337Z,58.03
2023-04-15T01:05:18.559Z,56.10
2023-04-15T01:06:21.490Z,54.83
2023-04-15T01:07:23.967Z,60.28
2023-04-15T01:08:29.359Z,57.05
2023-04-15T01:09:33.309Z,60.25
2023-04-15T01:10:36.084Z,55.63
2023-04-15T01:11:39.159Z,57.10
2023-04-15T01:12:44.603Z,55.80
2023-04-15T01:13:47.763Z,60.13
2023-04-15T01:14:50.012Z,61.72
2023-04-15T01:15:53.363Z,57.20
2023-04-15T01:16:55.861Z,58.83
2023-04-15T01:17:59.430Z,59.97
2023-04-15T01:19:02.360Z,62.95
2023-04-15T01:20:06.102Z,62.03
2023-04-15T01:21:08.635Z,64.80
2023-04-15T01:22:11.155Z,61.08
2023-04-15T01:23:14.329Z,59.63
2023-04-15T01:24:18.548Z,59.67
2023-04-15T01:25:31.376Z,62.10
2023-04-15T01:26:33.626Z,57.15
2023-04-15T01:27:39.215Z,57.60
2023-04-15T01:28:41.721Z,57.05
2023-04-15T01:29:44.109Z,60.55
2023-04-15T01:30:47.963Z,60.55
2023-04-15T01:31:55.213Z,59.85
2023-04-15T01:32:57.630Z,59.58
2023-04-15T01:34:01.436Z,59.42
2023-04-15T01:35:03.837Z,55.67
2023-04-15T01:36:08.499Z,57.50
2023-04-15T01:37:10.900Z,55.45
2023-04-15T01:38:13.617Z,64.47
2023-04-15T01:39:17.011Z,54.13
2023-04-15T01:40:19.219Z,61.17
2023-04-15T01:41:28.334Z,61.42
2023-04-15T01:42:31.878Z,61.72
2023-04-15T01:43:37.117Z,56.25
2023-04-15T01:44:39.565Z,56.17
2023-04-15T01:45:41.843Z,56.78
2023-04-15T01:46:45.331Z,59.20
2023-04-15T01:47:47.886Z,54.20
2023-04-15T01:48:50.301Z,55.75
2023-04-15T01:49:52.691Z,57.78
2023-04-15T01:50:58.082Z,58.70
2023-04-15T01:52:00.642Z,63.60
2023-04-15T01:53:02.917Z,54.47
2023-04-15T01:54:05.152Z,58.67
2023-04-15T01:55:08.602Z,58.58
2023-04-15T01:56:10.959Z,61.60
2023-04-15T01:57:13.526Z,60.05
2023-04-15T01:58:15.753Z,53.50
2023-04-15T01:59:18.791Z,56.70
2023-04-15T02:00:22.311Z,58.78
2023-04-15T02:01:25.071Z,56.83
2023-04-15T02:02:27.787Z,57.90
2023-04-15T02:03:32.436Z,56.65
2023-04-15T02:04:34.961Z,57.85
2023-04-15T02:05:37.290Z,52.70
2023-04-15T02:06:39.578Z,55.65
2023-04-15T02:07:43.555Z,54.72
2023-04-15T02:08:45.764Z,53.00
2023-04-15T02:09:47.996Z,55.47
2023-04-15T02:10:50.988Z,52.25
2023-04-15T02:11:54.310Z,57.10
2023-04-15T02:12:57.052Z,56.40
2023-04-15T02:14:07.008Z,57.75
2023-04-15T02:15:10.343Z,57.45
2023-04-15T02:16:19.675Z,51.25
2023-04-15T02:17:22.033Z,57.55
2023-04-15T02:18:24.372Z,54.30
2023-04-15T02:19:26.763Z,55.00
2023-04-15T02:20:30.802Z,50.90
2023-04-15T02:21:35.398Z,50.03
2023-04-15T02:22:38.503Z,54.83
2023-04-15T02:23:41.060Z,56.95
2023-04-15T02:24:43.259Z,57.22
2023-04-15T02:25:53.745Z,49.65
2023-04-15T02:27:58.922Z,49.67
2023-04-15T02:29:01.337Z,48.03
2023-04-15T02:30:04.101Z,53.67
2023-04-15T02:31:07.860Z,53.35
2023-04-15T02:32:11.239Z,55.78
2023-04-15T02:33:13.595Z,50.78
2023-04-15T02:34:15.904Z,52.80
2023-04-15T02:35:21.050Z,56.53
2023-04-15T02:36:24.020Z,56.10
2023-04-15T02:37:28.673Z,57.17
2023-04-15T02:38:32.188Z,52.05
2023-04-15T02:39:34.619Z,53.55
2023-04-15T02:40:37.366Z,51.22
2023-04-15T02:41:39.648Z,51.47
2023-04-15T02:42:42.916Z,56.35
2023-04-15T02:43:47.911Z,51.50
2023-04-15T02:44:50.612Z,56.35
2023-04-15T02:45:53.962Z,52.65
2023-04-15T02:46:56.652Z,45.38
2023-04-15T02:47:59.333Z,50.55
2023-04-15T02:49:03.505Z,51.38
2023-04-15T02:50:12.786Z,43.10
2023-04-15T02:52:20.558Z,46.17
2023-04-15T02:53:22.971Z,43.05
2023-04-15T02:54:26.120Z,47.88
2023-04-15T02:55:29.168Z,46.15
2023-04-15T02:56:31.696Z,41.65
2023-04-15T02:57:35.049Z,41.10
2023-04-15T02:58:43.311Z,38.83
2023-04-15T02:59:45.486Z,36.75
2023-04-15T03:00:47.903Z,37.47
2023-04-15T03:01:50.227Z,36.78
2023-04-15T03:02:57.738Z,36.55
2023-04-15T03:04:00.765Z,34.33
2023-04-15T03:05:03.266Z,39.78
2023-04-15T03:06:08.855Z,38.03
2023-04-15T03:07:11.092Z,32.72
2023-04-15T03:08:15.006Z,33.28
2023-04-15T03:09:17.652Z,34.50
2023-04-15T03:10:20.871Z,36.13
2023-04-15T03:11:23.289Z,35.40
2023-04-15T03:12:26.152Z,36.33
2023-04-15T03:13:31.894Z,40.67
2023-04-15T03:14:37.927Z,34.58
2023-04-15T03:15:40.276Z,32.63
2023-04-15T03:16:42.588Z,28.95
2023-04-15T03:17:44.819Z,32.03
2023-04-15T03:18:48.316Z,31.88
2023-04-15T03:19:50.708Z,34.03
2023-04-15T03:20:53.254Z,30.50
2023-04-15T03:21:55.625Z,30.90
2023-04-15T03:22:58.183Z,38.97
2023-04-15T03:24:01.604Z,31.98
2023-04-15T03:25:07.715Z,29.63
2023-04-15T03:26:09.964Z,27.15
2023-04-15T03:27:13.223Z,26.15
2023-04-15T03:28:15.768Z,29.45
2023-04-15T03:29:18.334Z,30.17
2023-04-15T03:30:21.585Z,25.40
2023-04-15T03:31:24.298Z,27.40
2023-04-15T03:32:27.222Z,25.42
2023-04-15T03:33:29.730Z,21.80
2023-04-15T03:34:32.363Z,25.85
2023-04-15T03:35:34.945Z,33.75
2023-04-15T03:36:37.678Z,23.50
2023-04-15T03:37:40.030Z,24.33
2023-04-15T03:38:42.748Z,21.75
2023-04-15T03:39:45.725Z,23.35
2023-04-15T03:40:47.990Z,24.42
2023-04-15T03:41:50.509Z,23.10
2023-04-15T03:42:52.893Z,27.38
2023-04-15T03:43:55.103Z,22.10
2023-04-15T03:44:57.675Z,22.92
2023-04-15T03:46:01.750Z,28.35
2023-04-15T03:47:04.227Z,20.45
2023-04-15T03:48:16.474Z,25.33
2023-04-15T03:49:20.169Z,24.23
2023-04-15T03:50:22.773Z,20.02
2023-04-15T03:51:25.001Z,19.65
2023-04-15T03:52:27.203Z,22.85
2023-04-15T03:53:33.105Z,21.27
2023-04-15T03:54:35.520Z,23.63
2023-04-15T03:55:38.011Z,19.67
2023-04-15T03:56:40.214Z,18.40
2023-04-15T03:57:42.496Z,21.63
2023-04-15T03:58:45.046Z,19.10
2023-04-15T03:59:48.171Z,20.00
2023-04-15T04:00:50.512Z,18.27
2023-04-15T04:01:52.859Z,15.73
2023-04-15T04:02:55.571Z,16.75
2023-04-15T04:03:58.093Z,18.83
2023-04-15T04:05:04.040Z,20.13
2023-04-15T04:06:09.340Z,16.08
2023-04-15T04:07:18.397Z,16.58
2023-04-15T04:08:21.734Z,15.95
2023-04-15T04:09:23.994Z,18.65
2023-04-15T04:10:29.972Z,15.07
2023-04-15T04:11:33.468Z,21.08
2023-04-15T04:12:35.986Z,17.92
2023-04-15T04:13:38.790Z,17.08
2023-04-15T04:14:41.109Z,16.33
2023-04-15T04:15:43.399Z,20.25
2023-04-15T04:16:45.937Z,20.23
2023-04-15T04:17:48.416Z,18.02
2023-04-15T04:18:50.978Z,19.92
2023-04-15T04:19:53.254Z,16.45
2023-04-15T04:20:55.602Z,16.83
2023-04-15T04:21:57.889Z,17.52
2023-04-15T04:23:00.139Z,21.75
2023-04-15T04:24:02.454Z,19.10
2023-04-15T04:25:04.933Z,15.02
2023-04-15T04:26:07.404Z,16.80
2023-04-15T04:27:09.617Z,16.98
2023-04-15T04:28:13.233Z,20.48
2023-04-15T04:29:17.915Z,16.23
2023-04-15T04:30:20.358Z,19.25
2023-04-15T04:31:22.655Z,24.42
2023-04-15T04:32:25.111Z,15.77
2023-04-15T04:33:27.376Z,15.23
2023-04-15T04:34:30.255Z,19.27
2023-04-15T04:35:35.074Z,19.23
2023-04-15T04:36:37.325Z,19.13
2023-04-15T04:37:39.708Z,16.58
2023-04-15T04:38:42.132Z,17.77
2023-04-15T04:39:44.347Z,18.08
2023-04-15T04:40:46.838Z,18.75
2023-04-15T04:41:49.779Z,16.35
2023-04-15T04:42:52.047Z,28.30
2023-04-15T04:43:56.481Z,15.98
2023-04-15T04:44:58.678Z,17.33
2023-04-15T04:46:01.411Z,15.35
2023-04-15T04:47:03.688Z,18.15
2023-04-15T04:48:07.320Z,20.05
2023-04-15T04:49:09.814Z,18.52
2023-04-15T04:50:12.182Z,19.48
2023-04-15T04:51:14.440Z,16.45
2023-04-15T04:52:16.745Z,17.77
2023-04-15T04:53:19.284Z,18.25
2023-04-15T04:54:21.680Z,17.17
2023-04-15T04:55:23.916Z,17.52
2023-04-15T04:56:26.581Z,16.08
2023-04-15T04:57:28.791Z,15.88
2023-04-15T04:58:31.536Z,19.55
2023-04-15T04:59:34.063Z,19.45
2023-04-15T05:00:37.958Z,18.02
2023-04-15T05:01:41.276Z,15.55
2023-04-15T05:02:44.220Z,17.80
2023-04-15T05:03:46.839Z,14.85
2023-04-15T05:04:50.413Z,14.98
2023-04-15T05:05:53.114Z,15.57
2023-04-15T05:06:55.582Z,20.73
2023-04-15T05:07:57.856Z,15.07
2023-04-15T05:09:02.782Z,16.55
2023-04-15T05:10:06.694Z,14.52
2023-04-15T05:11:09.291Z,17.35
2023-04-15T05:12:15.033Z,15.13
2023-04-15T05:13:17.286Z,17.50
2023-04-15T05:14:19.765Z,19.60
2023-04-15T05:15:22.708Z,19.77
2023-04-15T05:16:26.136Z,17.08
2023-04-15T05:17:28.407Z,19.05
2023-04-15T05:18:31.002Z,13.90
2023-04-15T05:19:33.221Z,14.88
2023-04-15T05:20:35.444Z,15.82
2023-04-15T05:21:39.547Z,14.85
2023-04-15T05:22:41.926Z,20.48
2023-04-15T05:23:44.188Z,17.27
2023-04-15T05:24:46.612Z,19.55
2023-04-15T05:25:49.052Z,17.00
2023-04-15T05:26:51.558Z,17.60
2023-04-15T05:27:53.941Z,21.83
2023-04-15T05:28:56.150Z,18.90
2023-04-15T05:29:58.397Z,20.38
2023-04-15T05:31:00.911Z,16.95
2023-04-15T05:32:03.116Z,14.73
2023-04-15T05:33:05.459Z,14.55
2023-04-15T05:34:07.731Z,13.70
2023-04-15T05:35:09.972Z,18.73
2023-04-15T05:36:12.805Z,20.02
2023-04-15T05:37:18.150Z,17.60
2023-04-15T05:38:20.435Z,14.65
2023-04-15T05:39:22.678Z,15.27
2023-04-15T05:40:24.986Z,14.25
2023-04-15T05:41:27.173Z,16.52
2023-04-15T05:42:29.649Z,14.65
2023-04-15T05:43:31.929Z,18.27
2023-04-15T05:44:34.175Z,17.95
2023-04-15T05:45:36.532Z,13.52
2023-04-15T05:46:38.995Z,15.57
2023-04-15T05:47:41.316Z,13.15
2023-04-15T05:48:43.567Z,14.50
2023-04-15T05:49:45.847Z,17.10
2023-04-15T05:50:48.331Z,16.13
2023-04-15T05:51:50.856Z,17.00
2023-04-15T05:52:53.089Z,13.75
2023-04-15T05:53:55.615Z,15.48
2023-04-15T05:54:57.949Z,14.88
2023-04-15T05:56:00.268Z,13.23
2023-04-15T05:57:03.056Z,14.13
2023-04-15T05:58:05.275Z,15.82
2023-04-15T05:59:07.629Z,18.52
2023-04-15T06:00:10.762Z,19.05
2023-04-15T06:01:12.984Z,18.52
2023-04-15T06:02:15.556Z,13.85
2023-04-15T06:03:18.115Z,14.65
2023-04-15T06:04:20.598Z,16.67
2023-04-15T06:05:23.137Z,14.10
2023-04-15T06:06:25.347Z,17.98
2023-04-15T06:07:27.610Z,16.33
2023-04-15T06:08:29.897Z,17.60
2023-04-15T06:09:32.333Z,14.57
2023-04-15T06:10:36.802Z,18.88
2023-04-15T06:11:39.247Z,15.05
2023-04-15T06:12:41.773Z,17.02
2023-04-15T06:13:44.083Z,16.00
2023-04-15T06:14:46.624Z,15.88
2023-04-15T06:15:49.525Z,21.90
2023-04-15T06:16:52.320Z,16.42
2023-04-15T06:17:54.601Z,16.52
2023-04-15T06:18:56.853Z,15.77
2023-04-15T06:19:59.063Z,16.58
2023-04-15T06:21:01.360Z,17.90
2023-04-15T06:22:03.881Z,18.10
2023-04-15T06:23:06.444Z,14.07
2023-04-15T06:24:08.691Z,19.75
2023-04-15T06:25:11.196Z,15.75
2023-04-15T06:26:13.398Z,15.82
2023-04-15T06:27:15.902Z,18.95
2023-04-15T06:28:18.155Z,18.13
2023-04-15T06:29:20.593Z,17.45
2023-04-15T06:30:24.408Z,19.98
2023-04-15T06:31:27.320Z,16.67
2023-04-15T06:32:29.872Z,18.75
2023-04-15T06:33:32.266Z,21.85
2023-04-15T06:34:37.692Z,18.30
2023-04-15T06:35:40.590Z,16.95
2023-04-15T06:36:43.063Z,21.23
2023-04-15T06:37:45.732Z,24.80
2023-04-15T06:38:48.036Z,18.33
2023-04-15T06:39:51.748Z,16.45
2023-04-15T06:40:54.050Z,19.27
2023-04-15T06:41:56.885Z,17.35
2023-04-15T06:42:59.462Z,20.20
2023-04-15T06:44:04.250Z,19.20
2023-04-15T06:45:07.043Z,17.65
2023-04-15T06:46:09.536Z,19.70
2023-04-15T06:47:14.688Z,17.85
2023-04-15T06:48:18.043Z,17.52
2023-04-15T06:49:20.220Z,17.70
2023-04-15T06:50:22.958Z,20.20
2023-04-15T06:51:26.745Z,18.27
2023-04-15T06:52:29.616Z,22.55
2023-04-15T06:53:32.250Z,21.25
2023-04-15T06:54:34.544Z,17.02
2023-04-15T06:55:37.037Z,19.55
2023-04-15T06:56:39.258Z,19.40
2023-04-15T06:57:41.656Z,17.25
2023-04-15T06:58:43.917Z,19.10
2023-04-15T06:59:47.040Z,18.65
2023-04-15T07:00:49.393Z,19.92
2023-04-15T07:01:52.006Z,23.63
2023-04-15T07:02:55.375Z,23.88
2023-04-15T07:03:59.817Z,23.35
2023-04-15T07:05:02.083Z,18.75
2023-04-15T07:06:06.640Z,18.98
2023-04-15T07:07:11.548Z,17.75
2023-04-15T07:08:14.131Z,19.45
2023-04-15T07:09:16.337Z,20.95
2023-04-15T07:10:18.729Z,21.40
2023-04-15T07:11:23.382Z,17.95
2023-04-15T07:12:26.863Z,19.55
2023-04-15T07:13:31.972Z,16.88
2023-04-15T07:14:34.209Z,17.35
2023-04-15T07:15:39.021Z,21.02
2023-04-15T07:16:41.822Z,20.10
2023-04-15T07:17:44.107Z,19.35
2023-04-15T07:18:47.050Z,18.10
2023-04-15T07:19:49.348Z,20.05
2023-04-15T07:20:52.200Z,18.40
2023-04-15T07:21:54.536Z,21.58
2023-04-15T07:22:57.610Z,19.55
2023-04-15T07:23:59.986Z,17.98
2023-04-15T07:25:02.465Z,17.50
2023-04-15T07:26:04.813Z,19.33
2023-04-15T07:27:07.511Z,20.50
2023-04-15T07:28:09.895Z,19.42
2023-04-15T07:29:12.320Z,20.60
2023-04-15T07:30:14.959Z,21.25
2023-04-15T07:31:17.514Z,20.92
2023-04-15T07:32:20.185Z,17.80
2023-04-15T07:33:23.480Z,21.85
2023-04-15T07:34:25.910Z,18.95
2023-04-15T07:35:29.382Z,19.88
2023-04-15T07:36:31.592Z,19.70
2023-04-15T07:37:33.811Z,19.10
2023-04-15T07:38:36.048Z,17.50
2023-04-15T07:39:38.475Z,17.90
2023-04-15T07:40:40.939Z,19.30
2023-04-15T07:41:43.483Z,17.88
2023-04-15T07:42:46.186Z,16.92
2023-04-15T07:43:49.120Z,19.40
2023-04-15T07:44:52.125Z,18.63
2023-04-15T07:45:57.095Z,16.75
2023-04-15T07:46:59.571Z,18.35
2023-04-15T07:48:03.142Z,22.98
2023-04-15T07:49:05.665Z,18.30
2023-04-15T07:50:09.519Z,20.08
2023-04-15T07:51:12.963Z,19.15
2023-04-15T07:52:15.361Z,20.25
2023-04-15T07:53:17.595Z,21.83
2023-04-15T07:54:20.287Z,19.10
2023-04-15T07:55:23.470Z,17.60
2023-04-15T07:56:26.520Z,18.15
2023-04-15T07:57:30.118Z,18.70
2023-04-15T07:58:32.370Z,20.80
2023-04-15T07:59:34.678Z,19.75
2023-04-15T08:00:39.500Z,17.92
2023-04-15T08:01:42.566Z,20.63
2023-04-15T08:02:46.897Z,19.73
2023-04-15T08:03:49.635Z,18.00
2023-04-15T08:04:53.246Z,25.25
2023-04-15T08:05:55.562Z,19.45
2023-04-15T08:06:58.502Z,18.00
2023-04-15T08:08:05.879Z,16.38
2023-04-15T08:09:08.305Z,19.58
2023-04-15T08:10:11.052Z,22.48
2023-04-15T08:11:13.525Z,22.63
2023-04-15T08:12:16.040Z,19.65
2023-04-15T08:13:18.741Z,18.65
2023-04-15T08:14:25.030Z,20.63
2023-04-15T08:15:28.460Z,21.73
2023-04-15T08:16:30.788Z,20.38
2023-04-15T08:17:33.631Z,18.73
2023-04-15T08:18:36.079Z,20.65
2023-04-15T08:19:38.532Z,19.55
2023-04-15T08:20:40.767Z,21.25
2023-04-15T08:21:43.084Z,18.00
2023-04-15T08:22:46.475Z,22.75
2023-04-15T08:23:50.571Z,19.67
2023-04-15T08:24:52.775Z,22.50
2023-04-15T08:25:54.976Z,21.65
2023-04-15T08:26:57.671Z,18.02
2023-04-15T08:28:07.252Z,19.13
2023-04-15T08:29:09.549Z,21.05
2023-04-15T08:30:12.425Z,24.30
2023-04-15T08:31:16.407Z,21.95
2023-04-15T08:32:19.222Z,21.55
2023-04-15T08:33:21.595Z,22.02
2023-04-15T08:34:24.332Z,24.23
2023-04-15T08:35:26.576Z,23.73
2023-04-15T08:36:28.831Z,27.17
2023-04-15T08:37:31.212Z,26.15
2023-04-15T08:38:33.851Z,21.80
2023-04-15T08:39:36.250Z,21.75
2023-04-15T08:40:43.016Z,20.25
2023-04-15T08:41:59.243Z,20.05
2023-04-15T08:43:03.889Z,22.73
2023-04-15T08:44:06.706Z,27.35
2023-04-15T08:45:11.433Z,23.02
2023-04-15T08:46:14.087Z,24.65
2023-04-15T08:47:20.882Z,22.98
2023-04-15T08:48:26.519Z,22.52
2023-04-15T08:49:31.160Z,22.30
2023-04-15T08:50:33.637Z,24.20
2023-04-15T08:51:36.086Z,22.38
2023-04-15T08:52:39.114Z,24.70
2023-04-15T08:53:41.812Z,22.13
2023-04-15T08:54:44.088Z,25.60
2023-04-15T08:55:50.831Z,24.40
2023-04-15T08:56:56.179Z,20.95
2023-04-15T08:57:58.940Z,23.45
2023-04-15T08:59:02.025Z,22.00
2023-04-15T09:00:05.527Z,27.92
2023-04-15T09:01:08.596Z,22.58
2023-04-15T09:02:12.240Z,22.95
2023-04-15T09:03:14.799Z,26.55
2023-04-15T09:04:17.383Z,26.58
2023-04-15T09:05:21.655Z,26.20
2023-04-15T09:06:24.291Z,23.08
2023-04-15T09:07:27.680Z,31.55
2023-04-15T09:08:29.916Z,28.17
2023-04-15T09:09:32.861Z,28.15
2023-04-15T09:10:35.757Z,25.33
2023-04-15T09:11:40.385Z,26.27
2023-04-15T09:12:42.850Z,25.95
2023-04-15T09:13:45.613Z,27.02
2023-04-15T09:14:49.491Z,24.52
2023-04-15T09:15:53.688Z,24.90
2023-04-15T09:17:01.379Z,26.40
2023-04-15T09:18:04.307Z,26.85
2023-04-15T09:19:34.384Z,29.27
2023-04-15T09:20:44.664Z,25.65
2023-04-15T09:21:48.028Z,28.60
2023-04-15T09:22:51.144Z,23.15
2023-04-15T09:23:59.649Z,26.05
2023-04-15T09:25:04.211Z,27.58
2023-04-15T09:26:07.196Z,23.85
2023-04-15T09:27:11.434Z,25.67
2023-04-15T09:28:13.621Z,24.98
2023-04-15T09:29:18.527Z,26.20
2023-04-15T09:30:21.293Z,28.90
2023-04-15T09:31:31.528Z,29.98
2023-04-15T09:32:34.935Z,29.48
2023-04-15T09:33:56.149Z,26.80
2023-04-15T09:34:58.654Z,27.08
2023-04-15T09:36:05.705Z,29.05
2023-04-15T09:37:09.194Z,27.13
2023-04-15T09:38:14.041Z,27.38
2023-04-15T09:39:16.201Z,22.42
2023-04-15T09:40:41.184Z,21.60
2023-04-15T09:41:44.650Z,15.98
2023-04-15T09:42:56.726Z,11.43
2023-04-15T09:43:58.997Z,8.35
2023-04-15T09:45:13.689Z,6.38
2023-04-15T09:46:16.204Z,5.38
2023-04-15T09:47:28.193Z,3.75
2023-04-15T09:48:31.511Z,3.60
2023-04-15T09:49:34.178Z,4.55
2023-04-15T09:50:41.250Z,4.43
2023-04-15T09:51:54.142Z,7.53
2023-04-15T09:53:03.975Z,5.22
2023-04-15T09:54:07.385Z,2.70
2023-04-15T09:55:10.562Z,2.42
2023-04-15T09:56:12.899Z,8.57
2023-04-15T09:57:15.986Z,4.63
2023-04-15T09:58:38.761Z,2.80
2023-04-15T09:59:41.399Z,10.93
2023-04-15T10:00:44.036Z,3.22
2023-04-15T10:01:47.116Z,3.72
2023-04-15T10:02:50.182Z,4.80
2023-04-15T10:03:53.628Z,2.55
2023-04-15T10:04:56.757Z,6.22
2023-04-15T10:06:01.067Z,4.20
2023-04-15T10:07:05.294Z,3.50
2023-04-15T10:08:08.648Z,5.50
2023-04-15T10:09:10.862Z,3.17
2023-04-15T10:10:14.291Z,2.92
2023-04-15T10:11:18.784Z,2.88
2023-04-15T10:12:22.780Z,5.75
2023-04-15T10:13:26.424Z,6.28
2023-04-15T10:14:31.341Z,21.60
2023-04-15T10:15:34.415Z,7.72
2023-04-15T10:16:43.132Z,5.15
2023-04-15T10:17:45.674Z,3.58
2023-04-15T10:18:53.368Z,6.85
2023-04-15T10:19:56.203Z,7.13
2023-04-15T10:21:01.343Z,4.38
2023-04-15T10:22:03.733Z,2.25
2023-04-15T10:23:09.019Z,3.03
2023-04-15T10:24:13.140Z,1.80
2023-04-15T10:25:15.780Z,1.42
2023-04-15T10:26:18.017Z,2.10
2023-04-15T10:27:21.039Z,1.65
2023-04-15T10:28:23.586Z,1.88
2023-04-15T10:29:29.112Z,1.75
2023-04-15T10:30:32.760Z,1.98
2023-04-15T10:31:38.171Z,4.28
2023-04-15T10:32:41.544Z,1.45
2023-04-15T10:33:44.820Z,2.10
2023-04-15T10:34:49.212Z,1.75
2023-04-15T10:35:53.944Z,1.40
2023-04-15T10:36:57.918Z,1.73
2023-04-15T10:38:00.243Z,1.70
2023-04-15T10:39:02.677Z,1.88
2023-04-15T10:40:24.686Z,2.35
2023-04-15T10:41:31.085Z,2.85
2023-04-15T10:42:36.475Z,2.55
2023-04-15T10:43:38.925Z,3.50
2023-04-15T10:44:44.885Z,3.67
2023-04-15T10:45:48.720Z,4.45
2023-04-15T10:46:51.960Z,4.25
2023-04-15T10:48:03.678Z,3.47
2023-04-15T10:49:27.975Z,2.30
2023-04-15T10:50:32.608Z,3.65
2023-04-15T10:51:41.607Z,3.60
2023-04-15T10:52:43.971Z,2.92
2023-04-15T10:53:46.348Z,5.32
2023-04-15T10:54:48.822Z,4.47
2023-04-15T10:55:51.246Z,5.40
2023-04-15T10:57:08.683Z,1.58
2023-04-15T10:58:11.233Z,2.78
2023-04-15T10:59:13.444Z,2.60
2023-04-15T11:00:17.380Z,3.10
2023-04-15T11:01:23.237Z,2.08
2023-04-15T11:03:12.278Z,1.50
2023-04-15T11:04:14.857Z,1.30
2023-04-15T11:05:18.736Z,2.42
2023-04-15T11:06:21.048Z,2.13
2023-04-15T11:07:44.774Z,3.00
2023-04-15T11:08:56.146Z,2.85
2023-04-15T11:09:58.503Z,2.75
2023-04-15T11:11:00.708Z,1.80
2023-04-15T11:12:08.642Z,1.70
2023-04-15T11:13:10.971Z,1.73
2023-04-15T11:14:16.445Z,1.70
2023-04-15T11:15:33.936Z,1.75
2023-04-15T11:16:45.064Z,1.65
2023-04-15T11:17:47.564Z,1.95
2023-04-15T11:18:56.133Z,2.78
2023-04-15T11:19:58.829Z,3.15
2023-04-15T11:21:03.791Z,1.60
2023-04-15T11:22:12.733Z,2.20
2023-04-15T11:23:16.098Z,2.67
2023-04-15T11:24:27.185Z,3.15
2023-04-15T11:25:31.574Z,2.75
2023-04-15T11:26:34.458Z,3.40
2023-04-15T11:27:36.636Z,2.47
2023-04-15T11:28:41.465Z,2.63
2023-04-15T11:29:44.245Z,3.15
2023-04-15T11:30:46.503Z,2.00
2023-04-15T11:31:49.703Z,2.53
2023-04-15T11:32:55.327Z,4.50
2023-04-15T11:34:02.230Z,2.67
2023-04-15T11:35:04.725Z,2.97
2023-04-15T11:36:08.149Z,4.13
2023-04-15T11:37:10.483Z,3.67
2023-04-15T11:38:14.218Z,4.38
2023-04-15T11:39:16.756Z,5.13
2023-04-15T11:40:29.660Z,3.05
2023-04-15T11:41:31.937Z,3.70
2023-04-15T11:42:48.607Z,2.25
2023-04-15T11:43:52.815Z,2.15
2023-04-15T11:45:09.590Z,1.92
2023-04-15T11:46:11.901Z,2.53
2023-04-15T11:47:24.312Z,2.85
2023-04-15T11:48:31.711Z,3.15
2023-04-15T11:49:34.997Z,2.30
2023-04-15T11:50:40.635Z,1.67
2023-04-15T11:51:43.246Z,2.33
2023-04-15T11:52:59.586Z,2.03
2023-04-15T11:54:02.018Z,2.25
2023-04-15T11:55:04.599Z,5.88
2023-04-15T11:56:08.976Z,2.95
2023-04-15T11:57:11.395Z,3.42
2023-04-15T11:58:24.106Z,2.28
2023-04-15T11:59:30.180Z,3.17
2023-04-15T12:00:40.114Z,2.25
2023-04-15T12:01:44.098Z,2.47
2023-04-15T12:02:47.465Z,3.35
2023-04-15T12:03:50.326Z,3.05
2023-04-15T12:05:05.796Z,3.65
2023-04-15T12:06:24.863Z,3.20
2023-04-15T12:07:27.302Z,2.45
2023-04-15T12:08:48.440Z,2.08
2023-04-15T12:09:58.069Z,2.75
2023-04-15T12:11:00.262Z,3.50
2023-04-15T12:12:02.514Z,2.50
2023-04-15T12:13:07.259Z,2.40
2023-04-15T12:14:30.240Z,2.30
2023-04-15T12:15:32.956Z,2.40
2023-04-15T12:17:02.948Z,2.13
2023-04-15T12:18:05.727Z,2.38
2023-04-15T12:19:14.980Z,3.15
2023-04-15T12:20:25.492Z,3.05
2023-04-15T12:21:35.154Z,1.95
2023-04-15T12:22:40.196Z,2.08
2023-04-15T12:24:12.714Z,2.67
2023-04-15T12:25:14.932Z,3.15
2023-04-15T12:26:18.162Z,1.52
2023-04-15T12:27:21.161Z,1.70
2023-04-15T12:28:23.463Z,2.45
2023-04-15T12:29:29.899Z,2.50
2023-04-15T12:30:32.429Z,2.40
2023-04-15T12:31:39.374Z,2.42
2023-04-15T12:32:43.513Z,2.13
2023-04-15T12:33:48.936Z,2.53
2023-04-15T12:34:52.279Z,2.10
2023-04-15T12:35:54.848Z,2.42
2023-04-15T12:36:57.926Z,2.35
2023-04-15T12:38:00.373Z,3.45
2023-04-15T12:39:04.687Z,2.50
2023-04-15T12:40:08.841Z,3.75
2023-04-15T12:41:12.138Z,3.33
2023-04-15T12:42:15.905Z,2.75
2023-04-15T12:43:18.269Z,2.40
2023-04-15T12:44:24.023Z,1.88
2023-04-15T12:45:26.878Z,2.40
2023-04-15T12:46:30.856Z,2.40
2023-04-15T12:47:33.224Z,2.40
2023-04-15T12:48:35.804Z,2.38
2023-04-15T12:49:38.260Z,2.38
2023-04-15T12:50:40.893Z,2.22
2023-04-15T12:51:43.344Z,2.85
2023-04-15T12:52:45.562Z,2.53
2023-04-15T12:53:49.606Z,2.83
2023-04-15T12:54:53.184Z,6.45
2023-04-15T12:55:55.609Z,2.53
2023-04-15T12:56:58.893Z,2.30
2023-04-15T12:58:01.081Z,3.15
2023-04-15T12:59:03.435Z,3.08
2023-04-15T13:00:08.406Z,2.75
2023-04-15T13:01:11.314Z,3.60
2023-04-15T13:02:14.006Z,4.38
2023-04-15T13:03:16.626Z,2.35
2023-04-15T13:04:20.725Z,3.97
2023-04-15T13:05:23.124Z,3.20
2023-04-15T13:06:25.326Z,3.92
2023-04-15T13:07:27.699Z,4.60
2023-04-15T13:08:29.909Z,3.00
2023-04-15T13:09:33.104Z,3.97
2023-04-15T13:10:38.882Z,2.92
2023-04-15T13:11:41.300Z,7.68
2023-04-15T13:12:43.603Z,4.25
2023-04-15T13:13:46.067Z,3.72
2023-04-15T13:14:48.265Z,4.45
2023-04-15T13:15:50.616Z,4.68
2023-04-15T13:16:53.825Z,4.15
2023-04-15T13:17:56.075Z,3.28
2023-04-15T13:18:59.553Z,3.72
2023-04-15T13:20:02.119Z,3.15
2023-04-15T13:21:05.444Z,3.95
2023-04-15T13:22:08.451Z,3.45
2023-04-15T13:23:10.649Z,5.22
2023-04-15T13:24:12.865Z,4.18
2023-04-15T13:25:15.083Z,3.90
2023-04-15T13:26:18.416Z,3.63
2023-04-15T13:27:21.392Z,3.47
2023-04-15T13:28:23.565Z,3.45
2023-04-15T13:29:25.838Z,3.83
2023-04-15T13:30:28.233Z,3.85
2023-04-15T13:31:30.610Z,4.25
2023-04-15T13:32:33.060Z,4.40
2023-04-15T13:33:35.356Z,3.90
2023-04-15T13:34:37.627Z,4.07
2023-04-15T13:35:40.470Z,4.38
2023-04-15T13:36:42.685Z,4.10
2023-04-15T13:37:44.876Z,4.20
2023-04-15T13:38:49.107Z,4.78
2023-04-15T13:39:52.762Z,4.28
2023-04-15T13:40:54.974Z,5.30
2023-04-15T13:41:57.528Z,4.65
2023-04-15T13:43:00.170Z,4.45
2023-04-15T13:44:02.531Z,4.78
2023-04-15T13:45:05.638Z,5.07
2023-04-15T13:46:08.052Z,4.72
2023-04-15T13:47:10.428Z,5.53
2023-04-15T13:48:12.628Z,4.47
2023-04-15T13:49:14.956Z,6.65
2023-04-15T13:50:17.361Z,4.20
2023-04-15T13:51:19.572Z,4.57
2023-04-15T13:52:21.979Z,4.40
2023-04-15T13:53:33.901Z,5.57
2023-04-15T13:54:41.581Z,7.85